createdAt,value
2018-10-12T00:00:41.386Z,16.15
2018-10-12T00:03:10.790Z,17.40
2018-10-12T00:05:40.022Z,14.93
2018-10-12T00:08:08.857Z,16.95
2018-10-12T00:10:38.398Z,15.75
2018-10-12T00:13:07.462Z,16.05
2018-10-12T00:15:36.335Z,16.05
2018-10-12T00:18:05.323Z,16.20
2018-10-12T00:20:34.373Z,15.68
2018-10-12T00:23:03.341Z,14.87
2018-10-12T00:25:32.337Z,17.00
2018-10-12T00:28:01.402Z,16.80
2018-10-12T00:30:30.317Z,18.40
2018-10-12T00:32:59.394Z,17.95
2018-10-12T00:35:28.416Z,18.75
2018-10-12T00:37:57.270Z,17.92
2018-10-12T00:40:26.253Z,18.12
2018-10-12T00:42:55.610Z,15.63
2018-10-12T00:45:24.770Z,16.07
2018-10-12T00:48:00.224Z,16.37
2018-10-12T00:50:31.084Z,17.98
2018-10-12T00:53:00.611Z,16.97
2018-10-12T00:55:31.872Z,15.53
2018-10-12T00:58:00.791Z,17.15
2018-10-12T01:00:30.098Z,17.92
2018-10-12T01:02:59.245Z,16.45
2018-10-12T01:05:28.395Z,17.27
2018-10-12T01:07:57.472Z,16.27
2018-10-12T01:10:26.520Z,16.75
2018-10-12T01:12:55.412Z,15.93
2018-10-12T01:15:29.792Z,17.17
2018-10-12T01:18:03.260Z,16.05
2018-10-12T01:20:37.557Z,15.93
2018-10-12T01:23:18.625Z,15.35
2018-10-12T01:25:54.763Z,16.07
2018-10-12T01:28:28.383Z,15.80
2018-10-12T01:31:03.177Z,15.72
2018-10-12T01:33:38.350Z,16.35
2018-10-12T01:36:13.189Z,17.85
2018-10-12T01:38:48.754Z,17.10
2018-10-12T01:41:22.014Z,19.42
2018-10-12T01:43:56.859Z,18.07
2018-10-12T01:46:30.648Z,19.92
2018-10-12T01:49:11.825Z,19.05
2018-10-12T01:51:45.540Z,18.25
2018-10-12T01:54:20.129Z,16.70
2018-10-12T01:56:56.529Z,18.92
2018-10-12T01:59:30.520Z,19.30
2018-10-12T02:02:04.271Z,20.12
2018-10-12T02:04:40.018Z,19.42
2018-10-12T02:07:15.431Z,18.12
2018-10-12T02:09:50.190Z,17.12
2018-10-12T02:12:25.033Z,17.45
2018-10-12T02:14:59.313Z,16.70
2018-10-12T02:17:35.793Z,15.80
2018-10-12T02:20:10.488Z,15.20
2018-10-12T02:22:44.796Z,15.53
2018-10-12T02:25:19.533Z,15.20
2018-10-12T02:27:52.661Z,16.37
2018-10-12T02:30:27.405Z,15.20
2018-10-12T02:33:01.549Z,16.35
2018-10-12T02:35:35.739Z,14.80
2018-10-12T02:38:09.725Z,16.82
2018-10-12T02:40:44.072Z,15.10
2018-10-12T02:43:17.196Z,16.42
2018-10-12T02:45:53.280Z,15.58
2018-10-12T02:48:39.095Z,14.70
2018-10-12T02:51:12.411Z,15.20
2018-10-12T02:53:46.635Z,16.10
2018-10-12T02:56:25.027Z,14.05
2018-10-12T02:59:00.000Z,15.03
2018-10-12T03:01:33.551Z,15.65
2018-10-12T03:04:11.040Z,15.98
2018-10-12T03:06:44.806Z,14.25
2018-10-12T03:09:20.034Z,15.45
2018-10-12T03:11:52.766Z,15.45
2018-10-12T03:14:29.260Z,15.60
2018-10-12T03:17:01.930Z,15.32
2018-10-12T03:19:34.823Z,15.35
2018-10-12T03:22:07.495Z,18.05
2018-10-12T03:24:40.779Z,19.42
2018-10-12T03:27:14.609Z,18.35
2018-10-12T03:29:48.152Z,17.20
2018-10-12T03:32:22.354Z,17.85
2018-10-12T03:34:55.825Z,17.98
2018-10-12T03:37:29.864Z,15.80
2018-10-12T03:40:04.487Z,15.72
2018-10-12T03:42:37.451Z,16.32
2018-10-12T03:45:11.224Z,15.80
2018-10-12T03:47:47.089Z,15.85
2018-10-12T03:50:21.339Z,15.95
2018-10-12T03:52:56.170Z,16.02
2018-10-12T03:55:32.045Z,17.85
2018-10-12T03:58:06.826Z,14.75
2018-10-12T04:00:41.219Z,17.50
2018-10-12T04:03:14.488Z,16.50
2018-10-12T04:05:49.155Z,16.57
2018-10-12T04:08:22.271Z,17.55
2018-10-12T04:10:55.759Z,14.90
2018-10-12T04:13:28.749Z,15.60
2018-10-12T04:16:02.293Z,15.80
2018-10-12T04:18:35.497Z,17.67
2018-10-12T04:21:08.626Z,17.67
2018-10-12T04:23:43.005Z,17.62
2018-10-12T04:26:16.611Z,19.07
2018-10-12T04:28:50.450Z,21.10
2018-10-12T04:31:23.680Z,17.80
2018-10-12T04:33:56.860Z,19.17
2018-10-12T04:36:30.489Z,21.02
2018-10-12T04:39:12.744Z,20.48
2018-10-12T04:41:46.480Z,21.17
2018-10-12T04:44:21.253Z,22.65
2018-10-12T04:46:55.563Z,22.10
2018-10-12T04:49:29.972Z,21.05
2018-10-12T04:52:04.512Z,19.40
2018-10-12T04:54:38.907Z,20.17
2018-10-12T04:57:12.521Z,20.37
2018-10-12T04:59:46.223Z,19.57
2018-10-12T05:02:21.205Z,19.85
2018-10-12T05:04:54.691Z,17.85
2018-10-12T05:07:28.941Z,18.80
2018-10-12T05:10:03.022Z,17.65
2018-10-12T05:12:34.343Z,16.82
2018-10-12T05:15:05.845Z,17.37
2018-10-12T05:17:38.502Z,17.62
2018-10-12T05:20:12.614Z,17.25
2018-10-12T05:22:45.639Z,17.52
2018-10-12T05:25:19.092Z,16.75
2018-10-12T05:27:51.688Z,17.05
2018-10-12T05:30:25.559Z,15.88
2018-10-12T05:33:00.067Z,17.25
2018-10-12T05:35:34.155Z,17.32
2018-10-12T05:38:08.947Z,17.30
2018-10-12T05:40:41.755Z,18.27
2018-10-12T05:43:15.073Z,17.23
2018-10-12T05:45:49.392Z,19.37
2018-10-12T05:48:30.618Z,18.07
2018-10-12T05:51:02.619Z,17.95
2018-10-12T05:53:36.523Z,16.95
2018-10-12T05:56:06.825Z,17.65
2018-10-12T05:58:36.401Z,18.62
2018-10-12T06:01:05.784Z,17.77
2018-10-12T06:03:35.146Z,17.62
2018-10-12T06:06:04.321Z,18.32
2018-10-12T06:08:33.303Z,18.87
2018-10-12T06:11:02.294Z,19.40
2018-10-12T06:13:31.293Z,18.70
2018-10-12T06:16:00.177Z,18.62
2018-10-12T06:18:29.206Z,18.37
2018-10-12T06:20:58.241Z,18.55
2018-10-12T06:23:27.320Z,18.98
2018-10-12T06:25:56.481Z,20.00
2018-10-12T06:28:25.603Z,19.62
2018-10-12T06:30:54.791Z,20.32
2018-10-12T06:33:24.042Z,18.80
2018-10-12T06:35:53.391Z,18.02
2018-10-12T06:38:22.896Z,19.57
2018-10-12T06:40:55.000Z,20.12
2018-10-12T06:43:25.378Z,19.98
2018-10-12T06:45:55.471Z,18.50
2018-10-12T06:48:24.994Z,19.70
2018-10-12T06:50:56.993Z,19.17
2018-10-12T06:53:26.191Z,21.17
2018-10-12T06:55:58.780Z,21.20
2018-10-12T06:58:28.340Z,20.70
2018-10-12T07:00:57.360Z,20.15
2018-10-12T07:03:27.235Z,19.30
2018-10-12T07:05:56.679Z,22.20
2018-10-12T07:08:25.835Z,22.82
2018-10-12T07:10:54.731Z,23.07
2018-10-12T07:13:23.575Z,22.82
2018-10-12T07:15:52.872Z,22.13
2018-10-12T07:18:21.685Z,23.10
2018-10-12T07:20:50.753Z,24.00
2018-10-12T07:23:19.859Z,23.52
2018-10-12T07:25:49.013Z,25.08
2018-10-12T07:28:18.482Z,25.52
2018-10-12T07:30:47.512Z,25.90
2018-10-12T07:33:16.390Z,26.20
2018-10-12T07:35:46.662Z,28.25
2018-10-12T07:38:16.880Z,27.58
2018-10-12T07:40:45.269Z,25.75
2018-10-12T07:43:15.726Z,26.48
2018-10-12T07:45:45.103Z,25.85
2018-10-12T07:48:14.825Z,27.02
2018-10-12T07:50:44.018Z,25.95
2018-10-12T07:53:12.968Z,28.32
2018-10-12T07:55:42.104Z,25.85
2018-10-12T07:58:11.877Z,24.70
2018-10-12T08:00:41.300Z,25.45
2018-10-12T08:03:10.460Z,23.73
2018-10-12T08:05:42.352Z,25.40
2018-10-12T08:08:13.405Z,23.15
2018-10-12T08:10:46.850Z,24.25
2018-10-12T08:13:16.094Z,24.65
2018-10-12T08:15:45.348Z,24.80
2018-10-12T08:18:14.794Z,23.83
2018-10-12T08:20:44.078Z,25.90
2018-10-12T08:23:13.532Z,22.97
2018-10-12T08:25:42.538Z,22.30
2018-10-12T08:28:11.890Z,30.07
2018-10-12T08:30:41.120Z,35.10
2018-10-12T08:33:10.191Z,19.37
2018-10-12T08:35:39.156Z,17.27
2018-10-12T08:38:08.793Z,26.10
2018-10-12T08:40:37.846Z,17.90
2018-10-12T08:43:07.252Z,17.43
2018-10-12T08:45:37.048Z,16.77
2018-10-12T08:48:07.091Z,16.87
2018-10-12T08:50:37.306Z,15.47
2018-10-12T08:53:07.730Z,15.27
2018-10-12T08:55:37.862Z,16.20
2018-10-12T08:58:08.842Z,15.43
2018-10-12T09:00:40.171Z,14.00
2018-10-12T09:03:13.863Z,15.47
2018-10-12T09:05:45.828Z,15.07
2018-10-12T09:08:17.375Z,17.03
2018-10-12T09:10:46.591Z,17.00
2018-10-12T09:13:15.678Z,17.33
2018-10-12T09:15:44.871Z,18.13
2018-10-12T09:18:14.065Z,18.50
2018-10-12T09:20:43.512Z,16.33
2018-10-12T09:23:12.704Z,15.67
2018-10-12T09:25:45.236Z,13.87
2018-10-12T09:28:20.072Z,15.50
2018-10-12T09:30:55.525Z,15.20
2018-10-12T09:33:28.196Z,14.77
2018-10-12T09:36:00.542Z,14.90
2018-10-12T09:38:31.996Z,14.40
2018-10-12T09:41:00.918Z,14.97
2018-10-12T09:43:30.149Z,13.80
2018-10-12T09:46:10.502Z,12.73
2018-10-12T09:48:39.590Z,10.90
2018-10-12T09:51:08.493Z,9.80
2018-10-12T09:53:37.793Z,9.87
2018-10-12T09:56:06.591Z,10.80
2018-10-12T09:58:40.967Z,10.93
2018-10-12T10:01:16.848Z,11.13
2018-10-12T10:03:53.012Z,10.60
2018-10-12T10:06:23.943Z,9.70
2018-10-12T10:11:38.602Z,7.40
2018-10-12T10:14:09.487Z,7.07
2018-10-12T10:16:38.448Z,5.23
2018-10-12T10:19:07.531Z,7.00
2018-10-12T10:21:41.949Z,5.80
2018-10-12T10:24:11.252Z,4.73
2018-10-12T10:26:40.426Z,4.97
2018-10-12T10:29:09.426Z,4.10
2018-10-12T10:31:38.679Z,6.47
2018-10-12T10:34:08.397Z,4.67
2018-10-12T10:36:37.225Z,3.87
2018-10-12T10:39:08.466Z,2.97
2018-10-12T10:41:37.521Z,3.00
2018-10-12T10:44:06.593Z,3.40
2018-10-12T10:46:35.644Z,4.07
2018-10-12T10:49:04.506Z,3.20
2018-10-12T10:51:33.498Z,4.53
2018-10-12T10:54:02.505Z,3.80
2018-10-12T10:56:31.608Z,3.10
2018-10-12T10:59:00.427Z,3.30
2018-10-12T11:01:29.500Z,2.90
2018-10-12T11:03:58.419Z,3.43
2018-10-12T11:06:27.343Z,3.30
2018-10-12T11:08:56.221Z,3.40
2018-10-12T11:11:24.992Z,3.20
2018-10-12T11:13:53.986Z,3.37
2018-10-12T11:16:22.887Z,2.73
2018-10-12T11:18:51.857Z,2.70
2018-10-12T11:21:20.641Z,3.20
2018-10-12T11:23:53.327Z,2.77
2018-10-12T11:26:26.839Z,2.83
2018-10-12T11:28:58.423Z,2.93
2018-10-12T11:31:31.119Z,2.73
2018-10-12T11:34:02.470Z,2.80
2018-10-12T11:36:34.456Z,2.60
2018-10-12T11:39:05.580Z,2.70
2018-10-12T11:41:36.150Z,2.60
2018-10-12T11:44:08.515Z,2.90
2018-10-12T11:46:40.421Z,2.07
2018-10-12T11:49:11.419Z,3.40
2018-10-12T11:51:42.833Z,2.50
2018-10-12T11:54:14.895Z,2.90
2018-10-12T11:56:43.840Z,2.50
2018-10-12T11:59:12.902Z,2.70
2018-10-12T12:01:41.660Z,3.63
2018-10-12T12:04:10.477Z,2.47
2018-10-12T12:06:39.362Z,2.87
2018-10-12T12:09:08.056Z,3.60
2018-10-12T12:11:37.184Z,2.50
2018-10-12T12:14:23.331Z,3.07
2018-10-12T12:16:53.121Z,3.07
2018-10-12T12:19:21.922Z,2.80
2018-10-12T12:21:50.917Z,2.83
2018-10-12T12:24:19.760Z,3.03
2018-10-12T12:26:48.579Z,2.80
2018-10-12T12:29:21.937Z,2.40
2018-10-12T12:31:53.448Z,2.50
2018-10-12T12:34:24.222Z,2.90
2018-10-12T12:36:56.025Z,2.70
2018-10-12T12:39:26.639Z,3.20
2018-10-12T12:41:58.446Z,3.20
2018-10-12T12:44:31.231Z,3.30
2018-10-12T12:47:02.899Z,2.83
2018-10-12T12:49:31.858Z,2.97
2018-10-12T12:52:00.453Z,2.50
2018-10-12T12:54:29.310Z,3.20
2018-10-12T12:56:58.347Z,3.10
2018-10-12T12:59:27.196Z,2.97
2018-10-12T13:01:56.194Z,3.00
2018-10-12T13:04:25.218Z,2.03
2018-10-12T13:06:54.253Z,2.57
2018-10-12T13:09:24.361Z,2.80
2018-10-12T13:11:53.218Z,3.10
2018-10-12T13:14:22.035Z,2.60
2018-10-12T13:16:50.815Z,2.83
2018-10-12T13:19:23.634Z,2.67
2018-10-12T13:21:52.684Z,3.33
2018-10-12T13:24:22.092Z,3.20
2018-10-12T13:26:51.225Z,2.17
2018-10-12T13:29:20.483Z,2.50
2018-10-12T13:31:49.593Z,2.93
2018-10-12T13:34:18.747Z,2.43
2018-10-12T13:36:47.771Z,1.90
2018-10-12T13:39:16.590Z,2.40
2018-10-12T13:41:45.737Z,2.37
2018-10-12T13:44:14.658Z,3.37
2018-10-12T13:46:43.978Z,2.73
2018-10-12T13:49:12.934Z,2.80
2018-10-12T13:51:41.784Z,2.23
2018-10-12T13:54:10.861Z,2.90
2018-10-12T13:56:39.642Z,2.27
2018-10-12T13:59:08.647Z,2.73
2018-10-12T14:01:37.528Z,2.70
2018-10-12T14:04:06.343Z,2.40
2018-10-12T14:06:35.372Z,2.43
2018-10-12T14:09:05.307Z,3.00
2018-10-12T14:11:34.178Z,2.33
2018-10-12T14:14:02.962Z,2.60
2018-10-12T14:16:31.781Z,2.23
2018-10-12T14:19:00.756Z,2.13
2018-10-12T14:21:29.271Z,2.80
2018-10-12T14:23:58.287Z,2.83
2018-10-12T14:26:46.301Z,2.37
2018-10-12T14:29:16.381Z,2.20
2018-10-12T14:31:45.665Z,2.10
2018-10-12T14:34:14.858Z,2.50
2018-10-12T14:36:43.667Z,2.37
2018-10-12T14:39:12.475Z,4.03
2018-10-12T14:41:41.241Z,2.60
2018-10-12T14:44:10.105Z,2.40
2018-10-12T14:46:39.182Z,3.00
2018-10-12T14:49:08.173Z,2.60
2018-10-12T14:51:37.303Z,2.00
2018-10-12T14:54:06.090Z,2.47
2018-10-12T14:56:35.118Z,2.40
2018-10-12T14:59:04.322Z,2.63
2018-10-12T15:01:33.373Z,2.27
2018-10-12T15:04:02.079Z,2.43
2018-10-12T15:06:31.594Z,2.17
2018-10-12T15:09:00.378Z,2.57
2018-10-12T15:11:29.380Z,2.23
2018-10-12T15:13:58.189Z,2.57
2018-10-12T15:16:26.883Z,2.10
2018-10-12T15:18:55.776Z,2.40
2018-10-12T15:21:24.886Z,2.10
2018-10-12T15:23:53.763Z,2.13
2018-10-12T15:26:22.683Z,2.10
2018-10-12T15:28:51.531Z,2.10
2018-10-12T15:31:20.401Z,2.60
2018-10-12T15:33:49.842Z,2.43
2018-10-12T15:36:18.842Z,2.07
2018-10-12T15:38:47.850Z,3.20
2018-10-12T15:41:16.666Z,2.93
2018-10-12T15:43:45.664Z,2.93
2018-10-12T15:46:14.575Z,3.80
2018-10-12T15:48:43.596Z,3.20
2018-10-12T15:51:12.621Z,4.40
2018-10-12T15:53:41.508Z,3.93
2018-10-12T15:56:10.535Z,4.07
2018-10-12T15:58:39.242Z,4.40
2018-10-12T16:01:08.674Z,3.73
2018-10-12T16:03:37.512Z,3.70
2018-10-12T16:06:06.372Z,3.90
2018-10-12T16:08:35.332Z,4.00
2018-10-12T16:11:04.228Z,3.60
2018-10-12T16:13:33.273Z,4.00
2018-10-12T16:16:02.579Z,5.90
2018-10-12T16:18:31.550Z,8.17
2018-10-12T16:21:00.472Z,11.33
2018-10-12T16:23:29.601Z,12.60
2018-10-12T16:26:12.304Z,11.97
2018-10-12T16:28:42.016Z,9.33
2018-10-12T16:31:10.939Z,9.60
2018-10-12T16:33:40.264Z,9.87
2018-10-12T16:36:09.524Z,9.97
2018-10-12T16:38:38.564Z,11.13
2018-10-12T16:41:07.814Z,11.20
2018-10-12T16:43:37.982Z,10.13
2018-10-12T16:46:06.886Z,9.00
2018-10-12T16:48:35.823Z,8.43
2018-10-12T16:51:04.546Z,7.67
2018-10-12T16:53:33.471Z,8.80
2018-10-12T16:56:02.274Z,6.63
2018-10-12T16:58:31.174Z,6.40
2018-10-12T17:01:00.055Z,5.37
2018-10-12T17:03:28.884Z,5.63
2018-10-12T17:05:57.835Z,3.90
2018-10-12T17:08:26.610Z,4.87
2018-10-12T17:10:55.545Z,3.60
2018-10-12T17:13:24.404Z,4.40
2018-10-12T17:15:53.221Z,3.83
2018-10-12T17:18:22.076Z,4.40
2018-10-12T17:20:50.959Z,4.80
2018-10-12T17:23:19.979Z,4.83
2018-10-12T17:25:48.827Z,4.70
2018-10-12T17:28:17.714Z,4.40
2018-10-12T17:30:46.505Z,3.83
2018-10-12T17:33:15.315Z,3.90
2018-10-12T17:35:44.267Z,4.23
2018-10-12T17:38:13.073Z,3.93
2018-10-12T17:40:42.006Z,4.83
2018-10-12T17:43:10.854Z,4.40
2018-10-12T17:45:39.709Z,4.40
2018-10-12T17:48:08.448Z,4.67
2018-10-12T17:50:37.227Z,4.50
2018-10-12T17:53:06.377Z,4.87
2018-10-12T17:55:35.301Z,4.63
2018-10-12T17:58:04.238Z,4.13
2018-10-12T18:00:33.201Z,4.83
2018-10-12T18:03:06.327Z,4.90
2018-10-12T18:05:35.305Z,4.37
2018-10-12T18:08:04.167Z,4.93
2018-10-12T18:10:33.091Z,4.60
2018-10-12T18:13:01.938Z,5.90
2018-10-12T18:15:30.926Z,6.07
2018-10-12T18:17:59.918Z,5.60
2018-10-12T18:20:28.665Z,5.17
2018-10-12T18:22:57.433Z,4.90
2018-10-12T18:25:26.403Z,5.20
2018-10-12T18:27:55.342Z,5.00
2018-10-12T18:30:24.201Z,5.10
2018-10-12T18:32:53.151Z,4.63
2018-10-12T18:35:21.926Z,4.37
2018-10-12T18:37:50.886Z,4.23
2018-10-12T18:40:19.685Z,4.13
2018-10-12T18:42:48.602Z,4.53
2018-10-12T18:45:18.073Z,4.23
2018-10-12T18:47:46.996Z,4.20
2018-10-12T18:50:15.846Z,4.80
2018-10-12T18:52:44.714Z,5.40
2018-10-12T18:55:13.701Z,4.30
2018-10-12T18:57:42.522Z,4.47
2018-10-12T19:00:11.781Z,4.83
2018-10-12T19:02:40.705Z,5.00
2018-10-12T19:05:09.787Z,5.23
2018-10-12T19:07:38.621Z,5.67
2018-10-12T19:10:07.551Z,5.50
2018-10-12T19:12:36.457Z,5.27
2018-10-12T19:15:05.505Z,5.40
2018-10-12T19:17:34.564Z,6.13
2018-10-12T19:20:03.604Z,6.10
2018-10-12T19:22:32.477Z,6.97
2018-10-12T19:25:01.339Z,5.90
2018-10-12T19:27:30.219Z,6.13
2018-10-12T19:29:59.036Z,6.20
2018-10-12T19:32:27.943Z,7.50
2018-10-12T19:34:57.042Z,7.40
2018-10-12T19:37:26.158Z,8.33
2018-10-12T19:39:54.916Z,6.80
2018-10-12T19:42:23.883Z,7.70
2018-10-12T19:44:53.218Z,8.07
2018-10-12T19:47:22.130Z,7.10
2018-10-12T19:49:51.005Z,7.43
2018-10-12T19:52:19.884Z,6.90
2018-10-12T19:54:48.686Z,7.70
2018-10-12T19:57:17.717Z,7.90
2018-10-12T19:59:46.687Z,8.13
2018-10-12T20:02:15.668Z,7.33
2018-10-12T20:04:50.040Z,7.07
2018-10-12T20:07:22.179Z,6.80
2018-10-12T20:09:51.116Z,7.10
2018-10-12T20:12:20.030Z,8.00
2018-10-12T20:14:48.992Z,6.73
2018-10-12T20:17:17.753Z,6.80
2018-10-12T20:19:46.560Z,6.50
2018-10-12T20:22:15.392Z,6.43
2018-10-12T20:24:44.410Z,6.13
2018-10-12T20:27:13.312Z,5.80
2018-10-12T20:29:42.412Z,6.30
2018-10-12T20:32:11.431Z,6.60
2018-10-12T20:34:40.300Z,7.10
2018-10-12T20:37:09.201Z,6.13
2018-10-12T20:39:38.349Z,6.37
2018-10-12T20:42:07.511Z,7.50
2018-10-12T20:44:36.570Z,6.60
2018-10-12T20:47:05.865Z,7.23
2018-10-12T20:49:34.875Z,6.93
2018-10-12T20:52:03.831Z,6.63
2018-10-12T20:54:32.810Z,7.60
2018-10-12T20:57:01.902Z,7.17
2018-10-12T20:59:30.922Z,7.27
2018-10-12T21:01:59.981Z,7.17
2018-10-12T21:04:28.874Z,8.20
2018-10-12T21:06:57.765Z,7.17
2018-10-12T21:09:26.786Z,8.47
2018-10-12T21:11:55.621Z,7.83
2018-10-12T21:14:24.539Z,8.50
2018-10-12T21:16:53.482Z,7.83
2018-10-12T21:19:22.270Z,7.28
2018-10-12T21:21:51.411Z,6.97
2018-10-12T21:24:20.246Z,7.85
2018-10-12T21:26:49.169Z,7.47
2018-10-12T21:29:18.319Z,7.80
2018-10-12T21:31:47.140Z,8.18
2018-10-12T21:34:16.022Z,9.33
2018-10-12T21:36:44.803Z,10.00
2018-10-12T21:39:13.756Z,9.70
2018-10-12T21:41:42.746Z,9.70
2018-10-12T21:44:11.665Z,8.88
2018-10-12T21:46:40.709Z,10.38
2018-10-12T21:49:09.791Z,9.88
2018-10-12T21:51:38.722Z,9.93
2018-10-12T21:54:07.773Z,10.40
2018-10-12T21:56:36.608Z,9.58
2018-10-12T21:59:05.601Z,9.30
2018-10-12T22:01:34.354Z,8.70
2018-10-12T22:04:03.347Z,9.03
2018-10-12T22:06:32.345Z,9.38
2018-10-12T22:09:05.626Z,8.48
2018-10-12T22:11:34.664Z,11.33
2018-10-12T22:14:03.963Z,8.55
2018-10-12T22:16:32.731Z,8.13
2018-10-12T22:19:01.828Z,7.53
2018-10-12T22:21:30.768Z,7.40
2018-10-12T22:23:59.850Z,6.42
2018-10-12T22:26:28.923Z,7.15
2018-10-12T22:28:57.646Z,6.95
2018-10-12T22:31:26.559Z,5.42
2018-10-12T22:33:55.532Z,6.00
2018-10-12T22:36:24.379Z,5.42
2018-10-12T22:38:53.585Z,5.25
2018-10-12T22:41:22.436Z,5.85
2018-10-12T22:43:51.477Z,5.65
2018-10-12T22:46:20.288Z,6.17
2018-10-12T22:48:49.368Z,14.45
2018-10-12T22:51:18.217Z,8.63
2018-10-12T22:53:47.070Z,7.60
2018-10-12T22:56:16.097Z,7.50
2018-10-12T22:58:45.014Z,6.55
2018-10-12T23:01:13.983Z,7.22
2018-10-12T23:03:42.907Z,6.25
2018-10-12T23:06:11.952Z,6.67
2018-10-12T23:08:40.901Z,5.72
2018-10-12T23:11:09.973Z,5.50
2018-10-12T23:13:38.987Z,6.15
2018-10-12T23:16:08.108Z,5.92
2018-10-12T23:18:37.006Z,6.65
2018-10-12T23:21:05.996Z,6.15
2018-10-12T23:23:34.862Z,6.05
2018-10-12T23:26:03.861Z,6.15
2018-10-12T23:28:32.745Z,5.80
2018-10-12T23:31:01.664Z,6.80
2018-10-12T23:33:41.393Z,6.80
2018-10-12T23:36:10.268Z,6.15
2018-10-12T23:38:39.277Z,6.05
2018-10-12T23:41:08.387Z,6.53
2018-10-12T23:43:37.281Z,6.28
2018-10-12T23:46:06.185Z,5.78
2018-10-12T23:48:35.121Z,6.60
2018-10-12T23:51:04.024Z,6.37
2018-10-12T23:53:33.026Z,5.97
2018-10-12T23:56:01.973Z,6.58
2018-10-12T23:58:30.921Z,6.10
